Time;durP1;ratioP1;P1;durP2;ratioP2;P2;SDS_P1;SDS_P2;PMS_P1;PMS_P2;Temp;Humidity;BMP_temperature;BMP_pressure;BME280_temperature;BME280_humidity;BME280_pressure;Samples;Min_cycle;Max_cycle;Signal;HPM_P1;HPM_P2
2021/09/11 00:03:52;;;;;;;1.88;1.00;;;23.00;42.90;;;;;;20954957;27;80920;-71
2021/09/11 00:13:54;;;;;;;2.92;0.93;;;22.80;42.90;;;;;;20954599;27;80768;-72
2021/09/11 00:23:56;;;;;;;5.63;0.75;;;22.70;43.30;;;;;;20953566;27;81888;-72
2021/09/11 00:33:58;;;;;;;2.03;0.90;;;22.60;43.70;;;;;;20952339;27;80817;-74
2021/09/11 00:44:00;;;;;;;;;;;22.50;43.50;;;;;;20970413;27;80817;-75
2021/09/11 00:54:03;;;;;;;2.00;0.50;;;22.30;43.70;;;;;;20992197;27;80777;-73
2021/09/11 01:04:05;;;;;;;3.72;0.85;;;22.20;44.20;;;;;;20968420;27;80056;-75
2021/09/11 01:14:08;;;;;;;1.65;0.85;;;22.10;44.40;;;;;;20967474;27;80883;-74
2021/09/11 01:24:11;;;;;;;3.30;1.00;;;22.00;44.30;;;;;;20950901;27;80931;-74
2021/09/11 01:34:13;;;;;;;2.28;1.00;;;22.00;43.70;;;;;;20967963;27;80742;-72
2021/09/11 01:44:18;;;;;;;3.35;1.02;;;22.00;47.50;;;;;;20967747;27;81799;-70
2021/09/11 01:54:34;;;;;;;2.42;1.10;;;21.70;46.90;;;;;;20967463;27;80489;-72
2021/09/11 02:04:44;;;;;;;3.22;1.27;;;21.50;49.70;;;;;;20966264;27;80687;-74
2021/09/11 02:14:58;;;;;;;4.40;0.93;;;21.40;49.90;;;;;;20965867;27;80992;-73
2021/09/11 02:25:04;;;;;;;2.95;1.10;;;21.40;49.30;;;;;;20980067;27;80747;-74
2021/09/11 02:35:08;;;;;;;2.20;0.70;;;21.20;49.50;;;;;;20978587;27;80489;-75
2021/09/11 02:45:12;;;;;;;1.70;0.73;;;21.20;49.20;;;;;;20978698;27;81961;-73
2021/09/11 02:55:15;;;;;;;3.08;1.13;;;21.00;50.70;;;;;;20960238;27;80560;-74
2021/09/11 03:05:27;;;;;;;;;;;20.90;50.40;;;;;;20977991;27;80550;-70
2021/09/11 03:15:48;;;;;;;2.55;0.95;;;20.70;49.30;;;;;;21000156;27;81179;-75
2021/09/11 03:26:10;;;;;;;3.03;1.23;;;20.80;49.60;;;;;;20977260;27;80003;-74
2021/09/11 03:36:19;;;;;;;6.72;1.25;;;20.70;50.90;;;;;;20974569;27;80733;-74
2021/09/11 03:46:25;;;;;;;3.42;1.05;;;20.50;54.40;;;;;;20973948;27;81319;-75
2021/09/11 03:56:33;;;;;;;2.20;1.13;;;20.40;56.00;;;;;;20973608;27;80781;-72
2021/09/11 04:06:45;;;;;;;2.13;1.15;;;20.30;55.10;;;;;;20973030;27;80055;-71
2021/09/11 04:16:57;;;;;;;5.47;1.10;;;20.10;55.00;;;;;;20972783;27;80744;-71
2021/09/11 04:27:05;;;;;;;4.43;1.00;;;20.00;55.60;;;;;;20972347;27;81381;-73
2021/09/11 04:37:15;;;;;;;2.22;0.80;;;19.70;55.90;;;;;;20953716;27;81096;-72
2021/09/11 04:47:18;;;;;;;4.25;0.93;;;19.50;56.50;;;;;;20950900;27;80840;-73
2021/09/11 04:57:23;;;;;;;2.67;1.00;;;19.40;57.60;;;;;;20968678;27;80805;-72
2021/09/11 05:07:25;;;;;;;;;;;19.40;57.60;;;;;;20915220;27;81618;-69
2021/09/11 05:17:28;;;;;;;3.70;1.02;;;19.30;57.40;;;;;;20969326;27;80822;-71
2021/09/11 05:27:31;;;;;;;3.42;1.38;;;19.20;58.20;;;;;;20954966;27;81290;-71
2021/09/11 05:37:34;;;;;;;;;;;19.10;60.20;;;;;;20956893;27;81601;-63
2021/09/11 05:47:37;;;;;;;2.83;1.20;;;19.00;60.10;;;;;;20978563;27;81745;-63
2021/09/11 05:57:39;;;;;;;4.43;1.03;;;19.00;59.40;;;;;;20966814;27;80264;-64
2021/09/11 06:07:42;;;;;;;5.75;1.60;;;19.00;59.20;;;;;;20961433;27;81289;-66
2021/09/11 06:17:45;;;;;;;9.52;1.75;;;19.20;58.80;;;;;;20951324;27;81596;-66
2021/09/11 06:27:54;;;;;;;;;;;19.30;58.80;;;;;;20965610;27;81224;-65
2021/09/11 06:37:56;;;;;;;4.10;1.65;;;19.50;58.60;;;;;;20988642;27;81778;-66
2021/09/11 06:47:59;;;;;;;6.18;2.00;;;19.70;57.00;;;;;;20960186;27;81789;-66
2021/09/11 06:58:03;;;;;;;8.32;2.20;;;20.00;56.10;;;;;;20960683;27;81153;-67
2021/09/11 07:08:05;;;;;;;5.43;1.38;;;20.40;55.50;;;;;;20965347;27;80662;-67
2021/09/11 07:18:08;;;;;;;7.53;1.83;;;20.60;55.10;;;;;;20965210;27;81350;-68
2021/09/11 07:28:12;;;;;;;4.88;1.95;;;20.90;54.00;;;;;;20945595;27;81141;-68
2021/09/11 07:38:15;;;;;;;7.03;2.53;;;21.10;53.60;;;;;;20965125;27;81132;-68
2021/09/11 07:48:18;;;;;;;5.45;2.03;;;21.30;53.70;;;;;;20926063;27;81914;-67
2021/09/11 07:58:20;;;;;;;;;;;21.50;53.50;;;;;;20955655;27;82081;-68
2021/09/11 08:08:23;;;;;;;5.40;1.80;;;22.10;52.20;;;;;;20980228;27;81862;-66
2021/09/11 08:18:24;;;;;;;3.65;1.40;;;22.40;51.10;;;;;;20957135;27;80005;-66
2021/09/11 08:28:29;;;;;;;6.72;1.20;;;22.90;50.10;;;;;;20962788;27;81555;-67
2021/09/11 08:38:34;;;;;;;8.50;2.05;;;23.20;49.50;;;;;;20904246;27;80593;-67
2021/09/11 08:48:37;;;;;;;5.93;1.67;;;23.50;49.10;;;;;;20935716;27;81036;-66
2021/09/11 08:58:39;;;;;;;10.07;1.90;;;23.90;48.20;;;;;;20953091;27;81958;-67
2021/09/11 09:08:46;;;;;;;3.80;1.60;;;24.00;47.50;;;;;;20932494;27;80959;-66
2021/09/11 09:18:48;;;;;;;7.57;1.73;;;24.10;47.20;;;;;;20951168;27;81624;-67
2021/09/11 09:29:10;;;;;;;3.80;1.17;;;24.50;46.30;;;;;;20958565;27;81062;-69
2021/09/11 09:39:12;;;;;;;10.60;1.88;;;24.50;45.80;;;;;;20970061;27;81323;-68
2021/09/11 09:49:24;;;;;;;5.13;1.27;;;24.40;46.00;;;;;;20970131;27;80789;-67
2021/09/11 09:59:26;;;;;;;4.37;1.00;;;25.40;44.00;;;;;;20965745;27;81717;-68
2021/09/11 10:09:30;;;;;;;3.30;0.70;;;26.00;42.10;;;;;;20967318;27;81042;-67
2021/09/11 10:19:42;;;;;;;2.05;0.75;;;25.60;42.50;;;;;;20967412;27;81729;-65
2021/09/11 10:29:54;;;;;;;4.22;1.00;;;26.70;40.60;;;;;;20961999;27;81614;-67
2021/09/11 10:40:23;;;;;;;10.10;1.10;;;29.30;36.40;;;;;;20968601;27;81589;-66
2021/09/11 10:50:37;;;;;;;1.73;0.73;;;30.40;34.70;;;;;;20971108;27;80241;-67
2021/09/11 11:00:58;;;;;;;4.47;1.00;;;31.40;32.80;;;;;;20977648;27;81810;-66
2021/09/11 11:11:02;;;;;;;2.88;0.90;;;35.60;28.00;;;;;;20977171;27;80767;-66
2021/09/11 11:21:05;;;;;;;2.50;1.15;;;38.20;24.40;;;;;;20974150;27;80732;-66
2021/09/11 11:31:06;;;;;;;3.55;0.70;;;40.60;22.10;;;;;;21033636;27;81939;-67
2021/09/11 11:41:09;;;;;;;4.13;1.02;;;41.60;20.80;;;;;;21062337;27;80767;-67
2021/09/11 11:51:12;;;;;;;5.00;1.83;;;42.70;19.60;;;;;;21042791;27;81714;-67
2021/09/11 12:01:29;;;;;;;3.90;0.88;;;39.60;21.80;;;;;;21041772;27;81975;-67
2021/09/11 12:11:31;;;;;;;2.85;0.75;;;43.00;18.50;;;;;;21051618;27;80382;-67
2021/09/11 12:21:34;;;;;;;1.92;0.70;;;39.50;20.60;;;;;;21054657;27;80699;-67
2021/09/11 12:31:40;;;;;;;4.93;0.75;;;33.10;27.10;;;;;;21052581;27;82125;-68
2021/09/11 12:41:49;;;;;;;3.70;0.98;;;31.40;29.60;;;;;;21056014;27;80675;-67
2021/09/11 12:51:53;;;;;;;2.75;0.40;;;33.00;27.50;;;;;;20951696;27;81012;-68
2021/09/11 13:01:55;;;;;;;0.90;0.40;;;36.80;23.20;;;;;;20885253;27;81064;-68
2021/09/11 13:11:56;;;;;;;1.77;0.60;;;36.80;23.30;;;;;;20886479;28;80838;-69
2021/09/11 13:21:58;;;;;;;1.00;0.50;;;35.40;24.20;;;;;;20885902;28;79979;-67
2021/09/11 13:32:00;;;;;;;0.98;0.43;;;34.30;23.80;;;;;;20885197;28;81794;-65
2021/09/11 13:42:02;;;;;;;3.08;0.32;;;34.20;24.10;;;;;;20953159;27;82088;-65
2021/09/11 13:52:04;;;;;;;1.50;0.68;;;34.70;23.30;;;;;;20949541;27;81649;-64
2021/09/11 14:02:05;;;;;;;1.02;0.38;;;33.40;24.10;;;;;;20950401;27;80546;-64
2021/09/11 14:12:07;;;;;;;1.38;0.30;;;32.60;24.60;;;;;;20932336;27;80759;-65
2021/09/11 14:22:09;;;;;;;4.90;0.28;;;32.60;24.80;;;;;;20957544;27;80526;-65
2021/09/11 14:32:11;;;;;;;1.50;0.60;;;32.00;25.70;;;;;;20964086;27;80469;-66
2021/09/11 14:42:13;;;;;;;2.03;0.30;;;31.50;26.20;;;;;;20960952;27;80993;-67
2021/09/11 14:52:14;;;;;;;2.35;0.40;;;31.80;25.70;;;;;;20945180;27;81811;-64
2021/09/11 15:02:16;;;;;;;2.03;0.43;;;36.50;21.40;;;;;;20959583;27;81356;-64
2021/09/11 15:12:18;;;;;;;0.68;0.32;;;39.40;19.00;;;;;;20933201;27;82344;-63
2021/09/11 15:22:20;;;;;;;0.93;0.30;;;34.00;23.40;;;;;;21014599;27;81298;-64
2021/09/11 15:32:22;;;;;;;1.52;0.55;;;32.10;25.10;;;;;;21060625;27;80848;-64
2021/09/11 15:42:24;;;;;;;0.43;0.20;;;32.80;24.20;;;;;;21003688;27;80607;-63
2021/09/11 15:52:26;;;;;;;0.63;0.32;;;33.60;23.20;;;;;;20936094;27;80859;-65
2021/09/11 16:02:28;;;;;;;1.02;0.40;;;34.90;22.90;;;;;;20962540;27;81977;-63
2021/09/11 16:12:29;;;;;;;1.85;0.50;;;32.30;25.10;;;;;;20955468;27;81064;-63
2021/09/11 16:22:31;;;;;;;0.85;0.32;;;30.40;27.50;;;;;;20953291;27;81707;-72
2021/09/11 16:32:33;;;;;;;1.73;0.32;;;31.00;27.10;;;;;;21015649;27;81269;-68
2021/09/11 16:42:35;;;;;;;0.68;0.20;;;31.00;27.00;;;;;;20888331;27;81762;-68
2021/09/11 16:52:36;;;;;;;1.25;0.30;;;30.90;27.20;;;;;;20884875;28;81878;-69
2021/09/11 17:02:42;;;;;;;3.42;0.43;;;29.80;28.40;;;;;;20911587;27;81905;-69
2021/09/11 17:12:44;;;;;;;3.45;0.30;;;29.00;29.40;;;;;;20970356;27;81840;-68
2021/09/11 17:22:46;;;;;;;22.98;1.33;;;28.50;30.20;;;;;;20968642;27;80739;-68
2021/09/11 17:32:49;;;;;;;1.17;0.30;;;28.10;30.60;;;;;;20968296;27;80782;-70
2021/09/11 17:42:52;;;;;;;1.00;0.40;;;28.00;30.90;;;;;;20967138;27;81810;-69
2021/09/11 17:52:54;;;;;;;1.02;0.40;;;28.10;30.90;;;;;;20959441;27;81042;-69
2021/09/11 18:02:55;;;;;;;1.00;0.47;;;28.10;30.60;;;;;;20964532;27;81100;-68
2021/09/11 18:12:57;;;;;;;3.88;0.73;;;27.90;31.00;;;;;;20982142;27;80657;-70
2021/09/11 18:23:00;;;;;;;1.27;0.50;;;27.60;31.50;;;;;;20981688;27;80820;-68
2021/09/11 18:33:01;;;;;;;3.38;0.55;;;27.20;32.30;;;;;;20981370;27;82578;-69
2021/09/11 18:43:03;;;;;;;1.38;0.40;;;26.80;32.60;;;;;;20980892;27;80753;-69
2021/09/11 18:53:06;;;;;;;2.97;1.00;;;26.40;33.10;;;;;;20961149;27;80595;-69
2021/09/11 19:03:08;;;;;;;5.05;2.10;;;26.20;33.50;;;;;;20958722;27;80005;-69
2021/09/11 19:13:12;;;;;;;3.30;1.15;;;25.90;34.20;;;;;;20969368;27;81608;-68
2021/09/11 19:23:15;;;;;;;3.53;1.50;;;25.90;34.10;;;;;;21028084;27;80735;-71
2021/09/11 19:33:18;;;;;;;8.10;1.77;;;25.60;34.80;;;;;;21060082;27;81772;-72
2021/09/11 19:43:20;;;;;;;4.13;2.50;;;25.40;36.50;;;;;;21059783;27;80746;-69
2021/09/11 19:53:21;;;;;;;21.80;12.43;;;25.20;35.80;;;;;;21041636;27;80753;-70
2021/09/11 20:03:25;;;;;;;6.03;4.00;;;25.00;36.10;;;;;;21028512;27;82703;-71
2021/09/11 20:13:28;;;;;;;10.27;5.00;;;24.80;36.90;;;;;;20998643;27;83335;-72
2021/09/11 20:23:30;;;;;;;8.10;3.22;;;24.70;37.50;;;;;;20954990;27;80803;-71
2021/09/11 20:33:36;;;;;;;8.75;4.88;;;24.50;37.80;;;;;;20957928;27;81849;-77
2021/09/11 20:43:38;;;;;;;5.10;2.95;;;24.40;39.10;;;;;;21002488;27;82148;-74
2021/09/11 20:53:40;;;;;;;7.72;2.65;;;24.10;39.60;;;;;;21002712;27;80912;-74
2021/09/11 21:03:42;;;;;;;6.57;3.13;;;23.90;40.90;;;;;;21036230;27;81227;-74
2021/09/11 21:13:44;;;;;;;7.88;3.03;;;23.80;41.10;;;;;;21055348;27;80880;-73
2021/09/11 21:23:45;;;;;;;6.40;3.78;;;23.70;41.30;;;;;;21035880;27;81749;-73
2021/09/11 21:33:47;;;;;;;7.47;2.40;;;23.50;41.30;;;;;;21047261;27;81802;-71
2021/09/11 21:43:49;;;;;;;5.80;2.33;;;23.40;41.10;;;;;;20962778;27;80585;-73
2021/09/11 21:53:51;;;;;;;4.63;2.33;;;23.20;41.40;;;;;;20967913;27;80006;-71
2021/09/11 22:03:54;;;;;;;6.32;2.60;;;23.10;41.50;;;;;;21047309;27;81738;-73
2021/09/11 22:13:57;;;;;;;5.25;2.65;;;23.00;41.90;;;;;;21051423;27;82093;-73
2021/09/11 22:24:00;;;;;;;7.80;2.08;;;22.90;42.70;;;;;;21038799;27;81825;-75
2021/09/11 22:34:02;;;;;;;5.53;2.17;;;22.70;42.90;;;;;;20996237;27;82449;-72
2021/09/11 22:44:04;;;;;;;3.55;1.42;;;22.40;43.30;;;;;;20980257;27;82206;-72
2021/09/11 22:54:07;;;;;;;8.45;1.40;;;22.30;43.30;;;;;;20979920;27;81974;-73
2021/09/11 23:04:08;;;;;;;6.43;1.90;;;22.20;44.30;;;;;;20978316;27;81976;-74
2021/09/11 23:14:12;;;;;;;5.93;1.83;;;22.00;44.80;;;;;;20982885;27;81499;-75
2021/09/11 23:24:15;;;;;;;4.63;1.42;;;21.90;45.20;;;;;;20986142;27;81193;-72
2021/09/11 23:34:17;;;;;;;4.82;1.27;;;21.80;45.80;;;;;;20976398;27;80628;-75
2021/09/11 23:44:19;;;;;;;;;;;21.60;46.30;;;;;;20958116;27;81944;-74
2021/09/11 23:54:21;;;;;;;2.88;1.38;;;21.40;46.20;;;;;;20997928;27;81947;-73
